Back to top

Torrington, WY weather

Torrington Municipal Airport, Torrington, WY: 11/13/2019 17:53
Visibility10 statute milessun with broken clouds
View 7-Day Forecast
Area Summary
Sky/CloudsBroken at 10000ft
Weather [last 24 hours]None
Pressure30.1 in.Hg (1019 hPa)
Dew Point28.9 °F (-1.7 °C)
Relative Humidity72.2 %
Temperature37 °F (2.8 °C)red thermometer
Wind Chill29.8 °F (-1.24 °C)
Reading TimeMinimum to Maximum Temperature
6-hr ending 11/13@16:5342.1 °F to 50 °F (5.6 °C to 10 °C)
6-hr ending 11/13@10:5336 °F to 46 °F (2.2 °C to 7.8 °C)
6-hr ending 11/13@04:5341 °F to 53.1 °F (5 °C to 11.7 °C)
6-hr ending 11/12@22:5346 °F to 53.1 °F (7.8 °C to 11.7 °C)
24-hr ending 11/12@23:53-5.1 °F to 55.9 °F (-20.6 °C to 13.3 °C)
Wind10.4 MPH (9 KT) green arrow pointing at 22.5 degrees
Wind FromNorth/Northeast (020 Degrees)
Rolling 24-hr Peak Wind34.5 MPH (30 KT) on 11/13@09:44
Rolling 24-hr Peak Wind FromNorth/Northwest (330 Degrees)
Twilight Begins06:14Sunshine Yesterday
Sunrise06:44N/A
Sunset16:38
Twilight Ends17:08
METARKTOR 140053Z AUTO 02009KT 10SM BKN100 03/M02 A3010 RMK AO2 SLP206 T00281017
Tags: